• Join FlightAware (Why Join?)
  • Login
  • US Flag 
10:37PM EST


 

Airport Tracker/Info


-or-


 

Live Flight TrackerFlight Track Log ✈ KAP46 ✈ 08-Aug-2013 ✈ KMSS - KALB

Flight Track Log - Related Links

Times and Time Zones

All times are in EDT time to prevent confusion due to time zone crossing. See the KAP46 flight status page for this flight to view local times or setup timezone preferences in your user account.

Time Position Orientation Groundspeed Altitude Reporting Facility
EDT Latitude Longitude Course Direction KTS MPH feet Rate Location/Type
01:15PM 44.7644 -74.6942 167° South 51 59 7,000  Level Boston Center
01:16PM 44.7064 -74.7856 228° Southwest 173 199 4,900 -793 Descending Boston Center
01:17PM 44.6753 -74.7725 163° South 132 152 5,400 545 Climbing Boston Center
01:18PM 44.6403 -74.7508 156° South 127 146 6,000 595 Climbing Boston Center
01:19PM 44.6072 -74.7319 158° South 127 146 6,600 496 Climbing Boston Center
01:20PM 44.7867 -74.7622 167° South  Level FlightAware Approximate
01:20PM 44.5722 -74.7161 162° South 127 146 7,000  Level Boston Center
01:21PM 44.5331 -74.6969 161° South 137 158 7,000  Level Boston Center
01:22PM 44.4897 -74.6722 158° South 155 178 7,000  Level Boston Center
01:23PM 44.4486 -74.6503 159° South 160 184 7,000  Level Boston Center
01:24PM 44.4072 -74.6283 159° South 160 184 7,000  Level Boston Center
01:25PM 44.3681 -74.6094 161° South 160 184 7,000  Level Boston Center
01:26PM 44.3267 -74.5906 162° South 165 190 7,000  Level Boston Center
01:27PM 44.2833 -74.5658 158° South 165 190 7,000  Level Boston Center
01:28PM 44.2442 -74.5469 161° South 165 190 7,000  Level Boston Center
01:29PM 44.2008 -74.5250 160° South 165 190 7,000  Level Boston Center
01:30PM 44.1575 -74.5033 160° South 165 190 7,000  Level Boston Center
01:31PM 44.1161 -74.4817 159° South 165 190 7,000  Level Boston Center
01:32PM 44.0728 -74.4572 158° South 165 190 7,000 45 Level Boston Center
01:33PM 44.0231 -74.4353 162° South 165 190 7,100  Climbing Boston Center
01:34PM 43.9817 -74.4164 162° South 165 190 7,000 -50 Descending Boston Center
01:35PM 43.9383 -74.3919 158° South 165 190 7,000  Level Boston Center
01:36PM 43.8950 -74.3706 160° South 165 190 7,000  Level Boston Center
01:37PM 43.8536 -74.3489 159° South 165 190 7,000  Level Boston Center
01:38PM 43.8103 -74.3275 160° South 165 190 7,000  Level Boston Center
01:39PM 43.7567 -74.3028 162° South 165 190 7,000  Level Boston Center
01:40PM 43.7131 -74.2814 160° South 165 190 7,000  Level Boston Center
01:41PM 43.6717 -74.2600 160° South 165 190 7,000  Level Boston Center
01:42PM 43.6283 -74.2356 158° South 165 190 7,000  Level Boston Center
01:43PM 43.5828 -74.2142 161° South 165 190 7,000  Level Boston Center
01:44PM 43.5414 -74.1931 160° South 165 190 7,000 60 Level Boston Center
01:45PM 43.5106 -74.1750 157° South 168 193 7,100 48 Climbing Boston Center
01:46PM 43.4464 -74.1472 163° South 162 186 7,100 -43 Level Boston Center
01:47PM 43.4133 -74.1292 158° South 165 190 7,000  Descending Boston Center
01:48PM 43.3658 -74.1050 160° South 165 190 7,100 50 Climbing Boston Center
01:49PM 43.3283 -74.0869 161° South 165 190 7,100 -149 Level Boston Center
01:50PM 43.2831 -74.0628 159° South 165 190 6,800 -393 Descending Boston Center
01:51PM 43.2394 -74.0447 163° South 170 196 6,300 -455 Descending Boston Center
01:53PM 43.1794 -74.0147 160° South 175 201 5,800 -429 Descending Boston Center
01:53PM 43.1400 -73.9964 161° South 176 203 5,400 -443 Descending Boston Center
01:55PM 43.0861 -73.9697 160° South 173 199 4,900 -645 Descending Boston Center
01:55PM 43.0447 -73.9486 160° South 174 200 4,100 -800 Descending Boston Center
01:56PM 43.0056 -73.9278 159° South 166 191 3,500 -508 Descending Boston Center
01:57PM 42.9578 -73.9039 160° South 174 200 3,100 -198 Descending Boston Center
01:58PM 42.9186 -73.8861 162° South 160 184 3,100 -209 Level Boston Center
01:59PM 42.8833 -73.8625 154° Southeast 155 178 2,700 -567 Descending Boston Center
02:00PM 42.8442 -73.8247 145° Southeast 152 175 1,900 -709 Descending Boston Center
02:01PM 42.8089 -73.8100 163° South 117 135 1,200 -541 Descending Boston Center
02:02PM 42.7778 -73.8092 179° South 96 110 800 -393 Descending Boston Center